Time;durP1;ratioP1;P1;durP2;ratioP2;P2;SDS_P1;SDS_P2;PMS_P1;PMS_P2;Temp;Humidity;BMP_temperature;BMP_pressure;BME280_temperature;BME280_humidity;BME280_pressure;Samples;Min_cycle;Max_cycle;Signal;HPM_P1;HPM_P2
2022/06/24 00:00:11;;;;;;;5.80;4.50;;;;;;;12.79;63.49;97221.33;1498611;94;27134;-76
2022/06/24 00:02:41;;;;;;;5.17;4.47;;;;;;;12.70;63.61;97219.45;1498031;94;25903;-77
2022/06/24 00:05:13;;;;;;;7.72;5.10;;;;;;;12.67;63.74;97224.52;1492247;94;28145;-77
2022/06/24 00:07:52;;;;;;;5.75;5.05;;;;;;;12.63;63.92;97227.67;1495456;94;33032;-77
2022/06/24 00:10:21;;;;;;;6.60;5.08;;;;;;;12.58;64.04;97226.17;1498144;94;25886;-76
2022/06/24 00:12:50;;;;;;;5.87;5.25;;;;;;;12.51;64.03;97229.50;1456394;95;26384;-77
2022/06/24 00:15:26;;;;;;;6.10;5.05;;;;;;;12.47;64.28;97231.52;1454384;96;25957;-77
2022/06/24 00:17:53;;;;;;;5.42;4.50;;;;;;;12.40;64.45;97232.97;1452064;96;27645;-76
2022/06/24 00:20:21;;;;;;;6.08;4.80;;;;;;;12.39;64.48;97235.38;1464016;96;25970;-77
2022/06/24 00:22:51;;;;;;;4.97;4.47;;;;;;;12.36;64.54;97238.53;1462163;96;25912;-77
2022/06/24 00:25:21;;;;;;;6.22;5.08;;;;;;;12.34;64.65;97237.92;1492311;94;25886;-77
2022/06/24 00:28:10;;;;;;;5.33;4.83;;;;;;;12.32;64.72;97234.61;1491004;94;25931;-77
2022/06/24 00:30:41;;;;;;;5.85;4.58;;;;;;;12.30;64.80;97224.56;1507859;92;27689;-78
2022/06/24 00:33:20;;;;;;;8.80;4.40;;;;;;;12.22;64.82;97224.84;1485188;95;25902;-77
2022/06/24 00:35:50;;;;;;;5.85;4.78;;;;;;;12.23;64.97;97229.21;1456757;97;26019;-76
2022/06/24 00:38:33;;;;;;;7.30;4.67;;;;;;;12.21;64.94;97229.44;1487232;95;26036;-77
2022/06/24 00:41:07;;;;;;;;;;;;;;;12.19;65.11;97238.86;1489393;95;26221;-77
2022/06/24 00:43:37;;;;;;;6.47;4.90;;;;;;;12.17;65.48;97239.60;1485123;95;27348;-76
2022/06/24 00:46:21;;;;;;;5.53;4.65;;;;;;;12.10;65.22;97238.83;1485286;95;26008;-77
2022/06/24 00:48:51;;;;;;;6.78;4.92;;;;;;;12.03;65.21;97235.38;1436904;98;25958;-77
2022/06/24 00:51:20;;;;;;;5.92;4.50;;;;;;;11.98;65.18;97241.45;1439248;99;26281;-77
2022/06/24 00:53:54;;;;;;;6.40;4.50;;;;;;;11.94;65.25;97244.84;1439308;98;25814;-76
2022/06/24 00:56:26;;;;;;;7.58;4.42;;;;;;;11.93;65.26;97240.48;1436332;98;28325;-77
2022/06/24 00:58:58;;;;;;;;;;;;;;;11.88;65.33;97238.44;1449884;97;25933;-77
2022/06/24 01:01:38;;;;;;;5.50;4.40;;;;;;;11.84;65.79;97232.64;1441176;98;25882;-76
2022/06/24 01:04:08;;;;;;;6.92;4.22;;;;;;;11.77;65.56;97231.89;1441557;98;25963;-76
2022/06/24 01:06:38;;;;;;;6.87;5.15;;;;;;;11.63;65.73;97228.97;1446747;98;25785;-77
2022/06/24 01:09:05;;;;;;;6.00;4.70;;;;;;;11.53;65.96;97227.30;1449363;98;28179;-77
2022/06/24 01:11:41;;;;;;;6.30;4.30;;;;;;;11.54;66.10;97226.26;1448647;98;25809;-77
2022/06/24 01:14:09;;;;;;;5.72;4.10;;;;;;;11.55;66.23;97226.56;1442405;98;25816;-78
2022/06/24 01:16:37;;;;;;;6.28;4.58;;;;;;;11.51;66.22;97226.69;1446356;97;25776;-77
2022/06/24 01:19:08;;;;;;;8.38;5.03;;;;;;;11.50;66.33;97227.73;1443816;98;25547;-77
2022/06/24 01:21:39;;;;;;;6.60;4.47;;;;;;;11.50;66.37;97233.14;1451446;97;27463;-77
2022/06/24 01:24:17;;;;;;;5.97;4.50;;;;;;;11.44;66.32;97226.77;1454131;97;25820;-78
2022/06/24 01:26:48;;;;;;;6.28;5.05;;;;;;;11.36;66.35;97234.30;1459402;96;26190;-77
2022/06/24 01:29:15;;;;;;;7.08;4.87;;;;;;;11.29;66.47;97222.73;1438549;99;26506;-76
2022/06/24 01:31:48;;;;;;;6.80;4.55;;;;;;;11.31;66.62;97223.34;1437534;99;25802;-77
2022/06/24 01:34:15;;;;;;;5.33;4.80;;;;;;;11.31;66.52;97213.36;1433908;98;27472;-78
2022/06/24 01:36:42;;;;;;;7.90;4.83;;;;;;;11.28;66.64;97216.50;1432840;99;25895;-77
2022/06/24 01:39:09;;;;;;;6.45;5.10;;;;;;;11.25;66.71;97214.23;1433939;98;25947;-77
2022/06/24 01:41:36;;;;;;;6.78;4.95;;;;;;;11.22;66.81;97205.75;1434297;99;25907;-77
2022/06/24 01:44:03;;;;;;;8.20;5.70;;;;;;;11.22;66.96;97201.18;1433108;99;25889;-78
2022/06/24 01:46:30;;;;;;;6.45;5.53;;;;;;;11.16;67.02;97208.27;1492002;95;27260;-77
2022/06/24 01:48:57;;;;;;;7.45;5.28;;;;;;;11.17;67.21;97214.51;1519466;92;25979;-77
2022/06/24 01:51:25;;;;;;;7.17;6.37;;;;;;;11.14;67.27;97214.94;1528615;92;25899;-77
2022/06/24 01:53:53;;;;;;;8.05;5.47;;;;;;;11.14;67.32;97217.12;1567001;89;26473;-77
2022/06/24 01:56:20;;;;;;;7.05;5.53;;;;;;;11.14;67.29;97219.82;1582211;89;25914;-77
2022/06/24 01:58:46;;;;;;;5.58;4.62;;;;;;;11.13;67.23;97208.70;1577990;89;27516;-77
2022/06/24 02:01:13;;;;;;;9.30;5.22;;;;;;;11.08;67.30;97211.78;1550625;91;26546;-77
2022/06/24 02:03:40;;;;;;;6.67;4.95;;;;;;;11.07;67.38;97211.47;1570996;90;25817;-78
2022/06/24 02:06:10;;;;;;;6.85;4.90;;;;;;;11.08;67.51;97212.61;1566411;89;25972;-77
2022/06/24 02:08:38;;;;;;;8.13;4.85;;;;;;;11.06;67.55;97206.59;1572163;90;25758;-77
2022/06/24 02:13:50;;;;;;;6.65;4.83;;;;;;;11.01;67.46;97206.41;1562268;90;26058;-77
2022/06/24 02:16:20;;;;;;;4.55;3.95;;;;;;;10.91;67.42;97203.37;1568933;90;25930;-77
2022/06/24 02:18:47;;;;;;;28.02;5.30;;;;;;;10.85;67.56;97205.61;1559656;90;26553;-76
2022/06/24 02:21:15;;;;;;;6.87;4.40;;;;;;;10.87;67.65;97208.89;1568370;90;25822;-77
2022/06/24 02:23:43;;;;;;;6.10;3.77;;;;;;;10.86;67.69;97205.91;1571787;90;28259;-78
2022/06/24 02:26:10;;;;;;;5.10;4.28;;;;;;;10.84;67.65;97206.65;1572361;90;26242;-77
2022/06/24 02:28:37;;;;;;;7.67;4.60;;;;;;;10.82;67.71;97199.28;1564463;90;25846;-77
2022/06/24 02:31:04;;;;;;;5.15;4.50;;;;;;;10.79;67.70;97201.06;1571822;90;25954;-77
2022/06/24 02:33:30;;;;;;;4.60;3.98;;;;;;;10.75;67.78;97202.01;1685882;83;25676;-77
2022/06/24 02:35:57;;;;;;;7.22;4.83;;;;;;;10.72;67.92;97204.34;1744911;81;27412;-76
2022/06/24 02:38:24;;;;;;;5.58;4.65;;;;;;;10.73;67.93;97206.00;1742583;81;25881;-77
2022/06/24 02:40:51;;;;;;;5.80;4.70;;;;;;;10.67;68.03;97198.23;1754190;80;25897;-76
2022/06/24 02:43:22;;;;;;;7.28;4.58;;;;;;;10.68;68.14;97199.05;1741997;81;25759;-76
2022/06/24 02:46:02;;;;;;;6.12;4.47;;;;;;;10.69;68.08;97196.66;1757252;81;25726;-77
2022/06/24 02:48:31;;;;;;;6.58;4.53;;;;;;;10.65;68.02;97196.27;1751004;81;28152;-76
2022/06/24 02:51:00;;;;;;;6.85;4.58;;;;;;;10.63;68.10;97200.22;1747658;81;25683;-77
2022/06/24 02:53:28;;;;;;;4.55;4.15;;;;;;;10.62;68.20;97202.64;1740844;81;25754;-77
2022/06/24 02:56:00;;;;;;;5.72;4.05;;;;;;;10.55;68.18;97201.83;1753268;81;25884;-77
2022/06/24 02:58:27;;;;;;;6.45;4.80;;;;;;;10.51;68.37;97210.04;1726739;82;25916;-77
2022/06/24 03:00:54;;;;;;;6.15;4.95;;;;;;;10.49;68.49;97205.41;1713577;82;27396;-77
2022/06/24 03:03:22;;;;;;;8.80;4.92;;;;;;;10.45;68.58;97204.48;1731522;82;25753;-76
2022/06/24 03:05:50;;;;;;;9.23;4.17;;;;;;;10.46;68.65;97206.14;1706401;82;25926;-77
2022/06/24 03:08:20;;;;;;;5.05;4.15;;;;;;;10.48;68.66;97213.19;1718455;82;25869;-78
2022/06/24 03:10:47;;;;;;;5.20;4.65;;;;;;;10.48;68.65;97205.92;1707085;82;25348;-78
2022/06/24 03:13:14;;;;;;;5.65;4.67;;;;;;;10.47;68.68;97213.72;1722975;82;27408;-77
2022/06/24 03:15:41;;;;;;;6.17;5.00;;;;;;;10.49;68.79;97210.80;1728172;82;25828;-77
2022/06/24 03:18:08;;;;;;;6.65;4.90;;;;;;;10.45;68.82;97208.52;1712935;82;25806;-77
2022/06/24 03:20:34;;;;;;;8.55;4.58;;;;;;;10.46;68.87;97207.48;1721817;82;26336;-78
2022/06/24 03:23:01;;;;;;;6.87;5.05;;;;;;;10.46;68.93;97208.00;1717516;82;25863;-77
2022/06/24 03:25:27;;;;;;;5.58;4.90;;;;;;;10.47;68.99;97209.66;1718710;82;27261;-77
2022/06/24 03:27:54;;;;;;;8.95;5.83;;;;;;;10.42;69.09;97210.82;1732861;82;25869;-76
2022/06/24 03:30:21;;;;;;;7.87;5.17;;;;;;;10.43;69.25;97211.95;1738959;82;25914;-76
2022/06/24 03:32:48;;;;;;;6.17;5.15;;;;;;;10.44;69.26;97206.04;1728024;82;26308;-77
2022/06/24 03:35:14;;;;;;;7.70;5.72;;;;;;;10.43;69.32;97211.95;1725005;82;25483;-76
2022/06/24 03:37:41;;;;;;;7.33;6.58;;;;;;;10.46;69.37;97217.45;1721070;82;27251;-78
2022/06/24 03:40:09;;;;;;;8.58;6.33;;;;;;;10.49;69.43;97210.80;1739126;82;25956;-77
2022/06/24 03:42:36;;;;;;;7.97;5.60;;;;;;;10.50;69.51;97213.29;1738918;82;25765;-76
2022/06/24 03:45:04;;;;;;;7.42;6.05;;;;;;;10.54;69.62;97215.84;1738065;82;25781;-77
2022/06/24 03:47:31;;;;;;;6.67;5.10;;;;;;;10.56;69.55;97219.16;1732510;82;25857;-78
2022/06/24 03:49:57;;;;;;;8.70;5.72;;;;;;;10.58;69.63;97218.95;1722789;82;28070;-79
2022/06/24 03:52:24;;;;;;;6.33;5.72;;;;;;;10.59;69.71;97213.86;1734777;82;25821;-77
2022/06/24 03:54:50;;;;;;;7.30;5.62;;;;;;;10.60;69.82;97215.52;1718085;81;25712;-77
2022/06/24 03:57:17;;;;;;;11.90;5.33;;;;;;;10.64;69.89;97214.02;1750673;81;25819;-80
2022/06/24 03:59:44;;;;;;;8.00;5.85;;;;;;;10.68;69.94;97214.73;1761749;81;25767;-77
2022/06/24 04:02:11;;;;;;;6.97;5.75;;;;;;;10.73;70.01;97220.32;1750915;81;26857;-79
2022/06/24 04:04:37;;;;;;;7.00;5.80;;;;;;;10.77;70.12;97218.00;1744851;81;25726;-78
2022/06/24 04:07:04;;;;;;;7.20;5.67;;;;;;;10.81;70.13;97215.17;1744885;81;26178;-77
2022/06/24 04:09:31;;;;;;;6.95;5.53;;;;;;;10.86;70.17;97218.06;1736408;81;26487;-77
2022/06/24 04:11:57;;;;;;;7.05;5.30;;;;;;;10.91;70.20;97220.09;1748029;81;25754;-79
2022/06/24 04:17:09;;;;;;;6.72;5.62;;;;;;;11.01;70.28;97218.56;1749125;81;25731;-77
2022/06/24 04:19:36;;;;;;;6.85;6.15;;;;;;;11.05;70.33;97218.44;1736511;81;25800;-78
2022/06/24 04:22:04;;;;;;;10.28;6.53;;;;;;;11.10;70.43;97221.33;1743963;81;26537;-77
2022/06/24 04:24:31;;;;;;;7.95;6.85;;;;;;;11.14;70.40;97221.17;1744778;81;25877;-77
2022/06/24 04:26:58;;;;;;;10.20;7.65;;;;;;;11.21;70.44;97219.78;1757426;81;27439;-77
2022/06/24 04:29:25;;;;;;;10.90;8.08;;;;;;;11.27;70.40;97218.89;1736503;81;25737;-79
2022/06/24 04:31:52;;;;;;;7.62;6.85;;;;;;;11.33;70.43;97219.90;1748649;81;25764;-77
2022/06/24 04:34:18;;;;;;;8.90;6.92;;;;;;;11.38;70.38;97221.40;1753119;81;25949;-77
2022/06/24 04:36:45;;;;;;;7.70;6.70;;;;;;;11.43;70.38;97221.58;1754107;81;25859;-78
2022/06/24 04:39:12;;;;;;;8.58;7.30;;;;;;;11.48;70.38;97217.67;1748815;81;27579;-79
2022/06/24 04:41:39;;;;;;;9.68;6.72;;;;;;;11.55;70.50;97219.28;1761418;81;25787;-78
2022/06/24 04:44:05;;;;;;;14.23;7.15;;;;;;;11.62;70.66;97212.45;1757450;81;25870;-78
2022/06/24 04:46:32;;;;;;;9.28;7.60;;;;;;;11.71;70.76;97212.45;1744764;81;25839;-78
2022/06/24 04:48:58;;;;;;;10.75;7.58;;;;;;;11.78;70.74;97217.32;1755197;81;26473;-77
2022/06/24 04:51:28;;;;;;;11.70;7.37;;;;;;;11.87;70.68;97206.51;1740607;81;27381;-77
2022/06/24 04:53:54;;;;;;;8.43;6.28;;;;;;;11.97;70.71;97207.33;1743788;81;25836;-78
2022/06/24 04:56:21;;;;;;;8.95;6.78;;;;;;;12.08;70.81;97203.05;1753886;81;25731;-79
2022/06/24 04:58:48;;;;;;;10.90;6.62;;;;;;;12.21;70.88;97200.19;1753181;81;25726;-77
2022/06/24 05:01:14;;;;;;;9.35;7.50;;;;;;;12.35;70.65;97199.51;1744938;81;25237;-77
2022/06/24 05:03:42;;;;;;;8.10;6.47;;;;;;;12.48;70.63;97202.88;1740655;81;28284;-77
2022/06/24 05:06:09;;;;;;;7.55;6.28;;;;;;;12.59;70.26;97203.45;1757905;81;25532;-76
2022/06/24 05:08:36;;;;;;;8.30;6.20;;;;;;;12.71;70.13;97202.67;1757337;81;25723;-76
2022/06/24 05:11:03;;;;;;;9.78;6.10;;;;;;;12.82;70.18;97203.23;1751953;81;26011;-76
2022/06/24 05:13:30;;;;;;;8.75;6.58;;;;;;;12.92;70.20;97206.25;1744778;81;25813;-76
2022/06/24 05:15:58;;;;;;;7.95;6.47;;;;;;;13.00;70.27;97199.13;1744746;81;27393;-77
2022/06/24 05:18:25;;;;;;;7.92;7.12;;;;;;;13.10;70.19;97200.74;1755259;81;25671;-76
2022/06/24 05:20:51;;;;;;;11.75;6.58;;;;;;;13.18;70.14;97196.36;1746520;81;25779;-76
2022/06/24 05:23:18;;;;;;;6.78;6.08;;;;;;;13.29;70.18;97198.80;1747489;81;25741;-76
2022/06/24 05:25:44;;;;;;;8.95;6.37;;;;;;;13.40;70.24;97194.48;1754493;81;25957;-77
2022/06/24 05:28:11;;;;;;;8.53;6.10;;;;;;;13.50;70.15;97193.36;1739515;81;28634;-76
2022/06/24 05:30:37;;;;;;;7.12;6.28;;;;;;;13.60;70.03;97190.88;1761487;81;26532;-76
2022/06/24 05:33:04;;;;;;;9.85;6.08;;;;;;;13.69;69.95;97187.58;1761456;81;25702;-77
2022/06/24 05:35:31;;;;;;;7.90;5.65;;;;;;;13.79;69.79;97186.97;1753479;81;25797;-76
2022/06/24 05:37:57;;;;;;;6.80;6.08;;;;;;;13.90;69.72;97188.85;1749086;81;25700;-77
2022/06/24 05:40:24;;;;;;;7.92;6.20;;;;;;;14.01;69.65;97193.97;1749264;81;27403;-76
2022/06/24 05:42:50;;;;;;;6.80;5.35;;;;;;;14.12;69.67;97184.19;1752693;81;25794;-76
2022/06/24 05:45:17;;;;;;;10.03;6.05;;;;;;;14.23;69.42;97190.12;1736431;81;25776;-76
2022/06/24 05:47:44;;;;;;;7.62;5.72;;;;;;;14.34;69.17;97187.38;1749013;81;26402;-76
2022/06/24 05:50:10;;;;;;;6.33;5.40;;;;;;;14.46;68.97;97185.19;1754395;81;25771;-77
2022/06/24 05:55:22;;;;;;;7.72;5.75;;;;;;;14.69;68.36;97175.05;1745417;81;25664;-76
2022/06/24 05:57:48;;;;;;;6.90;5.45;;;;;;;14.82;68.06;97175.83;1752363;81;25879;-78
2022/06/24 06:00:16;;;;;;;7.45;5.45;;;;;;;14.95;67.81;97171.45;1750003;81;26678;-76
2022/06/24 06:02:42;;;;;;;6.45;5.45;;;;;;;15.06;67.67;97175.45;1761577;81;25683;-77
2022/06/24 06:05:09;;;;;;;5.75;4.92;;;;;;;15.19;67.49;97172.95;1747306;81;28002;-76
2022/06/24 06:07:36;;;;;;;9.15;5.87;;;;;;;15.32;67.24;97165.84;1742576;81;25684;-76
2022/06/24 06:10:03;;;;;;;6.75;4.97;;;;;;;15.46;67.06;97167.66;1761570;81;25782;-77
2022/06/24 06:12:31;;;;;;;7.17;4.95;;;;;;;15.58;66.89;97165.70;1746380;81;26357;-76
2022/06/24 06:14:58;;;;;;;7.83;4.70;;;;;;;15.76;66.86;97171.44;1760428;81;25735;-77
2022/06/24 06:17:25;;;;;;;9.83;5.42;;;;;;;15.94;66.90;97165.69;1754779;81;27434;-78
2022/06/24 06:19:52;;;;;;;10.90;5.00;;;;;;;16.05;66.71;97167.51;1753482;81;25874;-77
2022/06/24 06:22:18;;;;;;;6.30;5.10;;;;;;;16.16;66.51;97159.75;1757369;81;25714;-77
2022/06/24 06:24:45;;;;;;;7.05;4.30;;;;;;;16.32;66.25;97163.47;1752472;81;26713;-76
2022/06/24 06:27:12;;;;;;;5.17;4.40;;;;;;;16.50;66.02;97167.79;1753386;81;25890;-77
2022/06/24 06:29:39;;;;;;;8.50;4.30;;;;;;;16.66;65.53;97175.10;1752804;81;28104;-77
2022/06/24 06:32:06;;;;;;;7.28;4.40;;;;;;;16.79;65.10;97166.50;1741450;81;25716;-77
2022/06/24 06:34:32;;;;;;;4.97;3.35;;;;;;;16.95;65.14;97169.39;1757493;80;25699;-78
2022/06/24 06:36:59;;;;;;;3.58;2.80;;;;;;;17.18;64.77;97158.98;1749087;81;26360;-78
2022/06/24 06:39:25;;;;;;;5.55;2.85;;;;;;;17.41;64.58;97163.26;1738999;81;25764;-79
2022/06/24 06:41:52;;;;;;;3.50;2.30;;;;;;;17.72;63.19;97155.34;1744899;81;27565;-77
2022/06/24 06:44:19;;;;;;;2.77;2.30;;;;;;;17.98;62.40;97163.98;1747185;81;25751;-78
2022/06/24 06:46:46;;;;;;;4.08;2.17;;;;;;;18.24;61.61;97160.27;1753442;81;26155;-78
2022/06/24 06:49:12;;;;;;;3.95;2.77;;;;;;;18.60;60.50;97151.70;1746302;81;26349;-77
2022/06/24 06:51:39;;;;;;;4.10;2.20;;;;;;;18.80;59.72;97152.32;1752247;81;25402;-79
2022/06/24 06:54:06;;;;;;;3.30;2.20;;;;;;;19.07;58.89;97148.00;1757618;81;27524;-78
2022/06/24 06:56:33;;;;;;;2.70;2.12;;;;;;;19.33;57.95;97144.16;1753079;81;25851;-77
2022/06/24 06:58:59;;;;;;;5.20;2.50;;;;;;;19.51;57.71;97146.95;1761545;81;25788;-77
2022/06/24 07:01:26;;;;;;;2.45;1.92;;;;;;;19.69;57.07;97146.37;1757454;81;25797;-79
2022/06/24 07:03:53;;;;;;;3.10;2.52;;;;;;;19.86;56.75;97141.15;1763459;80;25746;-79
2022/06/24 07:06:19;;;;;;;2.37;2.17;;;;;;;19.98;56.34;97148.52;1757132;81;27334;-79
2022/06/24 07:08:46;;;;;;;3.00;2.10;;;;;;;20.18;55.86;97149.83;1769586;80;25666;-78
2022/06/24 07:11:13;;;;;;;2.95;2.27;;;;;;;20.37;55.41;97155.02;1774396;80;25807;-78
2022/06/24 07:13:39;;;;;;;3.20;2.20;;;;;;;20.54;54.25;97146.98;1772631;80;26306;-79
2022/06/24 07:16:11;;;;;;;3.80;2.45;;;;;;;20.69;54.17;97152.39;1769192;80;25693;-79
2022/06/24 07:18:37;;;;;;;2.70;2.20;;;;;;;20.81;53.90;97148.22;1731471;82;27508;-81
2022/06/24 07:21:04;;;;;;;2.62;1.95;;;;;;;20.93;53.27;97152.54;1720114;82;25871;-79
2022/06/24 07:23:30;;;;;;;6.10;2.65;;;;;;;21.07;53.22;97146.69;1737085;82;25911;-77
2022/06/24 07:25:58;;;;;;;2.60;2.40;;;;;;;21.24;51.90;97143.05;1731466;82;25813;-77
2022/06/24 07:28:25;;;;;;;4.28;2.37;;;;;;;21.39;51.56;97139.34;1737025;82;26568;-81
2022/06/24 07:30:52;;;;;;;4.12;2.60;;;;;;;21.54;51.17;97141.97;1726453;82;27445;-78
2022/06/24 07:33:19;;;;;;;6.42;2.62;;;;;;;21.69;50.32;97143.21;1726065;82;25829;-79
2022/06/24 07:35:46;;;;;;;2.55;2.27;;;;;;;21.83;50.57;97144.73;1727664;82;25851;-79
2022/06/24 07:38:12;;;;;;;4.17;2.40;;;;;;;21.98;50.35;97141.02;1726471;82;25810;-79
2022/06/24 07:40:39;;;;;;;3.02;2.30;;;;;;;22.12;49.59;97139.23;1727673;82;25402;-79
2022/06/24 07:43:06;;;;;;;2.55;2.30;;;;;;;22.26;49.10;97140.17;1733477;82;28109;-79
2022/06/24 07:45:33;;;;;;;3.45;1.90;;;;;;;22.40;48.80;97133.41;1725115;82;25762;-78
2022/06/24 07:48:00;;;;;;;2.83;2.02;;;;;;;22.56;48.09;97141.19;1715317;82;25876;-80
2022/06/24 07:50:26;;;;;;;2.05;1.77;;;;;;;22.69;47.37;97131.95;1717490;82;26021;-78
2022/06/24 07:52:53;;;;;;;3.17;2.00;;;;;;;22.82;47.03;97135.39;1725373;82;25905;-78
2022/06/24 07:58:06;;;;;;;4.42;1.62;;;;;;;23.10;46.57;97126.14;1777394;80;26342;-82
2022/06/24 08:00:32;;;;;;;5.33;2.05;;;;;;;23.28;45.71;97119.82;1780641;80;25836;-79
2022/06/24 08:02:59;;;;;;;5.72;2.02;;;;;;;23.48;45.28;97115.08;1774382;79;26475;-82
2022/06/24 08:05:26;;;;;;;3.55;1.82;;;;;;;23.79;45.24;97113.45;1768137;80;25966;-82
2022/06/24 08:07:52;;;;;;;2.62;1.67;;;;;;;24.26;44.73;97119.23;1765443;79;27383;-83
2022/06/24 08:10:19;;;;;;;3.12;1.87;;;;;;;24.71;44.09;97106.41;1777698;79;25793;-81
2022/06/24 08:12:46;;;;;;;3.58;1.90;;;;;;;25.15;43.47;97102.13;1767209;80;25748;-81
2022/06/24 08:15:14;;;;;;;1.42;1.32;;;;;;;25.58;42.65;97103.02;1780124;80;26645;-81
2022/06/24 08:17:40;;;;;;;2.77;1.47;;;;;;;26.03;42.89;97103.23;1776262;79;25855;-83
2022/06/24 08:20:09;;;;;;;3.20;1.65;;;;;;;26.51;42.29;97102.46;1772343;80;27401;-80
2022/06/24 08:22:35;;;;;;;2.15;1.75;;;;;;;26.86;40.85;97101.97;1774648;80;26303;-82
2022/06/24 08:25:03;;;;;;;2.65;1.70;;;;;;;27.08;40.25;97096.87;1780693;80;25752;-79
2022/06/24 08:27:29;;;;;;;2.52;1.80;;;;;;;27.29;39.20;97091.52;1777938;79;26521;-79
2022/06/24 08:29:56;;;;;;;2.00;1.80;;;;;;;27.57;39.32;97087.27;1771234;80;25686;-79
2022/06/24 08:32:22;;;;;;;4.08;1.95;;;;;;;27.91;39.38;97078.04;1773631;80;27431;-78
2022/06/24 08:34:49;;;;;;;1.70;1.60;;;;;;;28.28;39.02;97085.60;1768717;79;26116;-80
2022/06/24 08:37:16;;;;;;;2.10;1.90;;;;;;;28.66;38.50;97087.53;1768936;80;25885;-80
2022/06/24 08:39:42;;;;;;;2.33;2.12;;;;;;;28.86;37.06;97083.98;1778750;80;26655;-80
2022/06/24 08:42:12;;;;;;;2.45;2.10;;;;;;;29.21;36.61;97079.58;1775205;80;25837;-80
2022/06/24 08:44:40;;;;;;;2.33;1.80;;;;;;;29.58;36.67;97081.98;1773173;80;27437;-85
2022/06/24 08:47:07;;;;;;;3.70;1.70;;;;;;;29.95;35.50;97072.55;1780126;79;25719;-82
2022/06/24 08:49:34;;;;;;;1.70;1.57;;;;;;;30.10;35.04;97076.67;1745470;80;25718;-80
2022/06/24 08:52:01;;;;;;;2.22;1.82;;;;;;;30.32;34.58;97074.02;1769504;80;25828;-81
2022/06/24 08:54:30;;;;;;;2.05;1.60;;;;;;;30.67;34.26;97068.84;1768291;79;25654;-80
2022/06/24 08:56:58;;;;;;;2.52;1.70;;;;;;;30.74;33.71;97067.66;1768096;80;27459;-84
2022/06/24 08:59:27;;;;;;;3.10;1.80;;;;;;;31.03;33.68;97067.39;1767942;79;25738;-81
2022/06/24 09:01:54;;;;;;;2.15;1.70;;;;;;;31.38;33.36;97064.87;1769394;80;25690;-81
2022/06/24 09:04:23;;;;;;;2.50;1.60;;;;;;;31.68;32.90;97059.75;1769526;80;25935;-79
2022/06/24 09:06:50;;;;;;;1.87;1.77;;;;;;;31.93;32.84;97064.61;1714148;82;26066;-81
2022/06/24 09:09:24;;;;;;;2.47;1.47;;;;;;;32.26;32.47;97058.70;1703254;83;27420;-82
2022/06/24 09:11:57;;;;;;;2.40;1.37;;;;;;;32.40;31.81;97064.65;1703278;82;25870;-82
2022/06/24 09:14:43;;;;;;;4.17;2.15;;;;;;;32.55;31.20;97055.45;1681486;84;25841;-80
2022/06/24 09:17:11;;;;;;;4.55;1.95;;;;;;;32.77;31.08;97050.38;1687516;84;26555;-80
2022/06/24 09:19:37;;;;;;;4.70;1.72;;;;;;;32.93;30.42;97047.55;1709179;82;25714;-81
2022/06/24 09:22:05;;;;;;;2.37;1.62;;;;;;;32.99;30.41;97045.48;1682436;83;27446;-84
2022/06/24 09:24:47;;;;;;;2.10;2.00;;;;;;;33.14;30.13;97043.82;1718215;80;25530;-83
2022/06/24 09:27:14;;;;;;;3.45;1.60;;;;;;;33.28;30.02;97041.95;1688642;83;25860;-80
2022/06/24 09:29:48;;;;;;;1.92;1.70;;;;;;;33.41;29.77;97037.23;1715238;82;25809;-85
2022/06/24 09:32:15;;;;;;;2.02;1.85;;;;;;;33.55;28.85;97038.11;1643921;86;25896;-81
2022/06/24 09:35:07;;;;;;;2.37;1.70;;;;;;;33.58;28.42;97039.56;1645653;85;27504;-82
2022/06/24 09:37:44;;;;;;;3.05;1.80;;;;;;;33.55;28.07;97040.91;1616731;87;25801;-82
2022/06/24 09:40:24;;;;;;;1.90;1.57;;;;;;;33.52;27.92;97038.26;1619835;87;25880;-82
2022/06/24 09:43:06;;;;;;;2.72;1.65;;;;;;;33.57;28.14;97035.77;1615655;87;25846;-82
2022/06/24 09:45:46;;;;;;;2.33;1.30;;;;;;;33.72;28.02;97036.81;1616159;87;25997;-82
2022/06/24 09:48:28;;;;;;;2.87;1.95;;;;;;;33.73;28.02;97029.45;1617258;87;27473;-82
2022/06/24 09:50:57;;;;;;;2.83;1.60;;;;;;;33.84;27.36;97030.49;1613306;86;25888;-81
2022/06/24 09:53:26;;;;;;;1.75;1.47;;;;;;;33.71;27.23;97025.41;1619978;86;26117;-81
2022/06/24 09:55:54;;;;;;;2.33;1.40;;;;;;;33.81;27.56;97027.03;1617350;87;25794;-81
2022/06/24 09:58:22;;;;;;;3.37;1.70;;;;;;;33.97;27.59;97015.13;1617798;86;25705;-82
2022/06/24 10:00:50;;;;;;;1.70;1.50;;;;;;;34.08;27.37;97016.72;1617341;86;28748;-82
2022/06/24 10:03:18;;;;;;;1.45;1.35;;;;;;;34.05;27.02;97013.87;1625480;86;26507;-82
2022/06/24 10:05:51;;;;;;;1.65;1.55;;;;;;;33.85;26.95;97007.51;1708221;82;25899;-82
2022/06/24 10:08:23;;;;;;;2.08;1.50;;;;;;;33.94;27.07;97007.47;1688999;82;26709;-81
2022/06/24 10:10:56;;;;;;;1.62;1.52;;;;;;;33.94;26.41;97005.27;1687727;83;26425;-85
2022/06/24 10:13:32;;;;;;;2.12;1.42;;;;;;;33.81;26.15;97000.44;1701997;83;27687;-81
2022/06/24 10:18:47;;;;;;;1.85;1.35;;;;;;;33.72;25.59;97001.84;1623216;86;25787;-81
2022/06/24 10:21:16;;;;;;;1.30;1.20;;;;;;;33.53;25.23;97006.89;1624008;86;25727;-81
2022/06/24 10:23:47;;;;;;;3.30;1.52;;;;;;;33.50;25.26;96997.83;1612539;87;25399;-82
2022/06/24 10:29:06;;;;;;;3.90;1.70;;;;;;;33.59;25.56;96995.59;1570315;90;25821;-81
2022/06/24 10:31:49;;;;;;;2.65;1.40;;;;;;;33.61;25.44;96994.64;1553849;91;25547;-82
2022/06/24 10:34:29;;;;;;;2.12;1.40;;;;;;;33.54;25.21;96995.33;1556100;91;25927;-81
2022/06/24 10:37:22;;;;;;;1.40;1.30;;;;;;;33.33;24.19;96993.49;1552172;91;25954;-84
2022/06/24 10:39:52;;;;;;;1.22;1.12;;;;;;;33.09;24.76;96988.98;1579339;88;27472;-83
2022/06/24 10:42:24;;;;;;;1.55;1.30;;;;;;;33.17;24.90;96985.77;1577078;88;26690;-84
2022/06/24 10:44:58;;;;;;;2.05;1.35;;;;;;;33.29;24.94;96991.83;1579134;89;25930;-86
2022/06/24 10:47:32;;;;;;;7.72;1.32;;;;;;;33.40;25.08;96980.25;1578098;88;26544;-86
2022/06/24 10:50:04;;;;;;;1.72;1.20;;;;;;;33.46;24.94;96974.56;1570679;90;26073;-85
2022/06/24 10:52:48;;;;;;;1.65;1.55;;;;;;;33.55;24.93;96969.56;1557244;90;27462;-81
2022/06/24 10:55:31;;;;;;;1.57;1.40;;;;;;;33.60;24.93;96968.64;1552069;91;25840;-80
2022/06/24 10:58:08;;;;;;;1.50;1.40;;;;;;;33.52;24.44;96974.49;1578493;90;25803;-88
2022/06/24 11:00:48;;;;;;;3.17;1.30;;;;;;;33.48;24.42;96975.00;1573015;89;26488;-82
2022/06/24 11:03:16;;;;;;;2.47;1.32;;;;;;;33.50;24.18;96972.65;1571811;89;26173;-81
2022/06/24 11:05:45;;;;;;;2.30;1.25;;;;;;;33.56;24.00;96969.78;1577218;89;28349;-84
2022/06/24 11:08:19;;;;;;;1.17;1.15;;;;;;;33.57;23.54;96965.19;1574113;89;25869;-83
2022/06/24 11:10:47;;;;;;;1.40;1.30;;;;;;;33.51;23.20;96958.30;1525405;93;25890;-83
2022/06/24 11:13:14;;;;;;;1.75;1.40;;;;;;;33.42;23.47;96961.11;1552102;90;25929;-82
2022/06/24 11:15:58;;;;;;;1.00;0.90;;;;;;;33.40;23.51;96948.09;1556864;91;25806;-81
2022/06/24 11:18:34;;;;;;;1.30;1.20;;;;;;;33.50;23.68;96949.67;1551158;91;28271;-86
2022/06/24 11:21:07;;;;;;;3.80;1.27;;;;;;;33.53;23.38;96942.53;1545412;91;25855;-84
2022/06/24 11:23:40;;;;;;;2.40;1.20;;;;;;;33.55;23.54;96940.98;1556571;91;26744;-80
2022/06/24 11:26:17;;;;;;;1.15;1.05;;;;;;;33.60;23.41;96931.45;1627953;84;25798;-82
2022/06/24 11:28:51;;;;;;;1.17;1.07;;;;;;;33.65;22.65;96926.97;1683117;84;25756;-83
2022/06/24 11:31:27;;;;;;;2.62;1.35;;;;;;;33.66;23.16;96932.78;1670673;84;28488;-82
2022/06/24 11:34:08;;;;;;;4.08;1.25;;;;;;;33.69;23.01;96932.05;1677100;84;25916;-86
2022/06/24 11:36:37;;;;;;;1.60;1.20;;;;;;;33.70;22.93;96932.23;1680307;84;25680;-83
2022/06/24 11:39:12;;;;;;;2.42;1.20;;;;;;;33.75;22.91;96926.37;1681828;84;26390;-84
2022/06/24 11:41:48;;;;;;;2.05;1.12;;;;;;;33.76;22.76;96922.39;1677741;84;25862;-81
2022/06/24 11:44:14;;;;;;;2.45;1.27;;;;;;;33.87;22.64;96914.98;1667263;84;28216;-81
2022/06/24 11:46:50;;;;;;;2.72;1.10;;;;;;;33.97;22.41;96917.13;1671703;84;25765;-81
2022/06/24 11:49:19;;;;;;;3.20;1.42;;;;;;;33.98;22.06;96917.36;1721785;80;25659;-82
2022/06/24 11:51:46;;;;;;;3.62;1.25;;;;;;;33.95;21.66;96915.30;1705613;82;25745;-80
2022/06/24 11:54:13;;;;;;;1.57;1.22;;;;;;;33.96;21.58;96912.72;1710904;82;26026;-80
2022/06/24 11:56:42;;;;;;;4.17;1.10;;;;;;;33.86;21.42;96909.75;1716000;81;27646;-81
2022/06/24 11:59:11;;;;;;;2.20;1.32;;;;;;;33.70;21.52;96918.23;1713371;82;25819;-80